Time,TemperatureF,DewpointF,PressureIn,WindDirection,WindDirectionDegrees,WindSpeedMPH,WindSpeedGustMPH,Humidity,HourlyPrecipIn,Conditions,Clouds,dailyrainin,SolarRadiationWatts/m^2,SoftwareType,DateUTC
2013-04-04 00:02:00,45.0,18.0,-100.00,East,87,3.0,7.0,34,0.00,,,0.00,0.000000,,2013-04-04 05:02:00,
2013-04-04 00:32:00,44.0,19.0,-100.00,ENE,62,3.0,6.0,36,0.00,,,0.00,0.000000,,2013-04-04 05:32:00,
2013-04-04 00:42:00,44.0,19.0,-100.00,ENE,62,3.0,6.0,36,0.00,,,0.00,0.000000,,2013-04-04 05:42:00,
2013-04-04 00:53:00,44.0,19.0,-100.00,ENE,62,3.0,6.0,36,0.00,,,0.00,0.000000,,2013-04-04 05:53:00,
2013-04-04 01:02:00,44.0,19.0,-100.00,ENE,62,3.0,6.0,36,0.00,,,0.00,0.000000,,2013-04-04 06:02:00,
2013-04-04 01:33:00,44.0,19.0,-100.00,East,85,3.0,8.0,36,0.00,,,0.00,0.000000,,2013-04-04 06:33:00,
2013-04-04 01:43:00,44.0,19.0,-100.00,East,85,3.0,8.0,36,0.00,,,0.00,0.000000,,2013-04-04 06:43:00,
2013-04-04 01:53:00,44.0,19.0,-100.00,East,85,3.0,8.0,36,0.00,,,0.00,0.000000,,2013-04-04 06:53:00,
2013-04-04 02:02:00,44.0,19.0,-100.00,East,85,3.0,8.0,36,0.00,,,0.00,0.000000,,2013-04-04 07:02:00,
2013-04-04 02:32:00,43.0,19.0,-100.00,ENE,70,3.0,7.0,38,0.00,,,0.00,0.000000,,2013-04-04 07:32:00,
2013-04-04 02:43:00,43.0,19.0,-100.00,ENE,70,3.0,7.0,38,0.00,,,0.00,0.000000,,2013-04-04 07:43:00,
2013-04-04 02:53:00,43.0,19.0,-100.00,ENE,70,3.0,7.0,38,0.00,,,0.00,0.000000,,2013-04-04 07:53:00,
2013-04-04 03:02:00,43.0,19.0,-100.00,ENE,70,3.0,7.0,38,0.00,,,0.00,0.000000,,2013-04-04 08:02:00,
2013-04-04 03:32:00,41.0,19.0,-100.00,NE,51,3.0,6.0,41,0.00,,,0.00,0.000000,,2013-04-04 08:32:00,
2013-04-04 03:43:00,41.0,19.0,-100.00,NE,51,3.0,6.0,41,0.00,,,0.00,0.000000,,2013-04-04 08:43:00,
2013-04-04 03:52:00,41.0,19.0,-100.00,NE,51,3.0,6.0,41,0.00,,,0.00,0.000000,,2013-04-04 08:52:00,
2013-04-04 04:02:00,41.0,19.0,-100.00,NE,51,3.0,6.0,41,0.00,,,0.00,0.000000,,2013-04-04 09:02:00,
2013-04-04 04:34:00,41.0,19.0,-100.00,NE,56,3.0,8.0,41,0.00,,,0.00,0.000000,,2013-04-04 09:34:00,
2013-04-04 04:43:00,41.0,19.0,-100.00,NE,56,3.0,8.0,41,0.00,,,0.00,0.000000,,2013-04-04 09:43:00,
2013-04-04 04:54:00,41.0,19.0,-100.00,NE,56,3.0,8.0,41,0.00,,,0.00,0.000000,,2013-04-04 09:54:00,
2013-04-04 05:04:00,41.0,19.0,-100.00,NE,56,3.0,8.0,41,0.00,,,0.00,0.000000,,2013-04-04 10:04:00,
2013-04-04 05:34:00,40.0,18.0,-100.00,ENE,70,3.0,8.0,40,0.00,,,0.00,0.000000,,2013-04-04 10:34:00,
2013-04-04 05:43:00,40.0,18.0,-100.00,ENE,70,3.0,8.0,40,0.00,,,0.00,0.000000,,2013-04-04 10:43:00,
2013-04-04 05:54:00,40.0,18.0,-100.00,ENE,70,3.0,8.0,40,0.00,,,0.00,0.000000,,2013-04-04 10:54:00,
2013-04-04 06:02:00,40.0,18.0,-100.00,ENE,70,3.0,8.0,40,0.00,,,0.00,0.000000,,2013-04-04 11:02:00,
2013-04-04 06:33:00,39.0,18.0,-100.00,NE,48,3.0,6.0,43,0.00,,,0.00,0.000000,,2013-04-04 11:33:00,
2013-04-04 06:43:00,39.0,18.0,-100.00,NE,48,3.0,6.0,43,0.00,,,0.00,0.000000,,2013-04-04 11:43:00,
2013-04-04 06:54:00,39.0,18.0,-100.00,NE,48,3.0,6.0,43,0.00,,,0.00,0.000000,,2013-04-04 11:54:00,
2013-04-04 07:02:00,39.0,18.0,-100.00,NE,48,3.0,6.0,43,0.00,,,0.00,0.000000,,2013-04-04 12:02:00,
2013-04-04 07:33:00,38.0,19.0,-100.00,NE,38,3.0,6.0,46,0.00,,,0.00,5.000000,,2013-04-04 12:33:00,
2013-04-04 07:43:00,38.0,19.0,-100.00,NE,38,3.0,6.0,46,0.00,,,0.00,5.000000,,2013-04-04 12:43:00,
2013-04-04 07:52:00,38.0,19.0,-100.00,NE,38,3.0,6.0,46,0.00,,,0.00,5.000000,,2013-04-04 12:52:00,
2013-04-04 08:02:00,38.0,19.0,-100.00,NE,38,3.0,6.0,46,0.00,,,0.00,5.000000,,2013-04-04 13:02:00,
2013-04-04 08:33:00,41.0,20.0,-100.00,NE,52,4.0,8.0,43,0.00,,,0.00,70.000000,,2013-04-04 13:33:00,
2013-04-04 08:43:00,41.0,20.0,-100.00,NE,52,4.0,8.0,43,0.00,,,0.00,70.000000,,2013-04-04 13:43:00,
2013-04-04 08:53:00,41.0,20.0,-100.00,NE,52,4.0,8.0,43,0.00,,,0.00,70.000000,,2013-04-04 13:53:00,
2013-04-04 09:03:00,41.0,20.0,-100.00,NE,52,4.0,8.0,43,0.00,,,0.00,70.000000,,2013-04-04 14:03:00,
2013-04-04 09:33:00,44.0,21.0,-100.00,ENE,75,4.0,9.0,39,0.00,,,0.00,193.000000,,2013-04-04 14:33:00,
2013-04-04 09:43:00,44.0,21.0,-100.00,ENE,75,4.0,9.0,39,0.00,,,0.00,193.000000,,2013-04-04 14:43:00,
2013-04-04 09:53:00,44.0,21.0,-100.00,ENE,75,4.0,9.0,39,0.00,,,0.00,193.000000,,2013-04-04 14:53:00,
2013-04-04 10:02:00,44.0,21.0,-100.00,ENE,75,4.0,9.0,39,0.00,,,0.00,193.000000,,2013-04-04 15:02:00,
2013-04-04 10:34:00,48.0,22.0,-100.00,NE,56,3.0,10.0,35,0.00,,,0.00,333.000000,,2013-04-04 15:34:00,
2013-04-04 10:43:00,48.0,22.0,-100.00,NE,56,3.0,10.0,35,0.00,,,0.00,333.000000,,2013-04-04 15:43:00,
2013-04-04 10:54:00,48.0,22.0,-100.00,NE,56,3.0,10.0,35,0.00,,,0.00,333.000000,,2013-04-04 15:54:00,
2013-04-04 11:03:00,48.0,22.0,-100.00,NE,56,3.0,10.0,35,0.00,,,0.00,333.000000,,2013-04-04 16:03:00,
2013-04-04 11:33:00,49.0,22.0,-100.00,North,6,4.0,6.0,34,0.00,,,0.00,303.000000,,2013-04-04 16:33:00,
2013-04-04 11:43:00,49.0,22.0,-100.00,North,6,4.0,6.0,34,0.00,,,0.00,303.000000,,2013-04-04 16:43:00,
2013-04-04 11:54:00,49.0,22.0,-100.00,North,6,4.0,6.0,34,0.00,,,0.00,303.000000,,2013-04-04 16:54:00,
2013-04-04 12:03:00,49.0,22.0,-100.00,North,6,4.0,6.0,34,0.00,,,0.00,303.000000,,2013-04-04 17:03:00,
2013-04-04 12:33:00,52.0,24.0,-100.00,NE,36,3.0,7.0,33,0.00,,,0.00,379.000000,,2013-04-04 17:33:00,
2013-04-04 12:43:00,52.0,24.0,-100.00,NE,36,3.0,7.0,33,0.00,,,0.00,379.000000,,2013-04-04 17:43:00,
2013-04-04 12:53:00,52.0,24.0,-100.00,NE,36,3.0,7.0,33,0.00,,,0.00,379.000000,,2013-04-04 17:53:00,
2013-04-04 13:02:00,52.0,24.0,-100.00,NE,36,3.0,7.0,33,0.00,,,0.00,379.000000,,2013-04-04 18:02:00,
2013-04-04 13:33:00,56.0,25.0,-100.00,North,350,3.0,7.0,30,0.00,,,0.00,518.000000,,2013-04-04 18:33:00,
2013-04-04 13:43:00,56.0,25.0,-100.00,North,350,3.0,7.0,30,0.00,,,0.00,518.000000,,2013-04-04 18:43:00,
2013-04-04 13:52:00,56.0,25.0,-100.00,North,350,3.0,7.0,30,0.00,,,0.00,518.000000,,2013-04-04 18:52:00,
2013-04-04 14:02:00,56.0,25.0,-100.00,North,350,3.0,7.0,30,0.00,,,0.00,518.000000,,2013-04-04 19:02:00,
2013-04-04 14:33:00,58.0,24.0,-100.00,NE,51,3.0,8.0,27,0.00,,,0.00,603.000000,,2013-04-04 19:33:00,
2013-04-04 14:43:00,58.0,24.0,-100.00,NE,51,3.0,8.0,27,0.00,,,0.00,603.000000,,2013-04-04 19:43:00,
2013-04-04 14:52:00,58.0,24.0,-100.00,NE,51,3.0,8.0,27,0.00,,,0.00,603.000000,,2013-04-04 19:52:00,
2013-04-04 15:03:00,58.0,24.0,-100.00,NE,51,3.0,8.0,27,0.00,,,0.00,603.000000,,2013-04-04 20:03:00,
2013-04-04 15:33:00,58.0,22.0,-100.00,ENE,59,4.0,11.0,25,0.00,,,0.00,418.000000,,2013-04-04 20:33:00,
2013-04-04 15:42:00,58.0,22.0,-100.00,ENE,59,4.0,11.0,25,0.00,,,0.00,418.000000,,2013-04-04 20:42:00,
2013-04-04 15:53:00,58.0,22.0,-100.00,ENE,59,4.0,11.0,25,0.00,,,0.00,418.000000,,2013-04-04 20:53:00,
2013-04-04 16:02:00,58.0,22.0,-100.00,ENE,59,4.0,11.0,25,0.00,,,0.00,418.000000,,2013-04-04 21:02:00,
2013-04-04 16:33:00,59.0,25.0,-100.00,NE,47,3.0,8.0,27,0.00,,,0.00,391.000000,,2013-04-04 21:33:00,
2013-04-04 16:43:00,59.0,25.0,-100.00,NE,47,3.0,8.0,27,0.00,,,0.00,391.000000,,2013-04-04 21:43:00,
2013-04-04 16:53:00,59.0,25.0,-100.00,NE,47,3.0,8.0,27,0.00,,,0.00,391.000000,,2013-04-04 21:53:00,
2013-04-04 17:03:00,59.0,25.0,-100.00,NE,47,3.0,8.0,27,0.00,,,0.00,391.000000,,2013-04-04 22:03:00,
2013-04-04 17:33:00,59.0,24.0,-100.00,North,7,4.0,11.0,26,0.00,,,0.00,420.000000,,2013-04-04 22:33:00,
2013-04-04 17:43:00,59.0,24.0,-100.00,North,7,4.0,11.0,26,0.00,,,0.00,420.000000,,2013-04-04 22:43:00,
2013-04-04 17:53:00,59.0,24.0,-100.00,North,7,4.0,11.0,26,0.00,,,0.00,420.000000,,2013-04-04 22:53:00,
2013-04-04 18:03:00,59.0,24.0,-100.00,North,7,4.0,11.0,26,0.00,,,0.00,420.000000,,2013-04-04 23:03:00,
2013-04-04 18:32:00,60.0,21.0,-100.00,NNW,345,5.0,10.0,22,0.00,,,0.00,396.000000,,2013-04-04 23:32:00,
2013-04-04 18:42:00,60.0,21.0,-100.00,NNW,345,5.0,10.0,22,0.00,,,0.00,396.000000,,2013-04-04 23:42:00,
2013-04-04 18:52:00,60.0,21.0,-100.00,NNW,345,5.0,10.0,22,0.00,,,0.00,396.000000,,2013-04-04 23:52:00,
2013-04-04 19:02:00,60.0,21.0,-100.00,NNW,345,5.0,10.0,22,0.00,,,0.00,396.000000,,2013-04-05 00:02:00,
2013-04-04 19:33:00,55.0,17.0,-100.00,NE,47,1.0,9.0,22,0.00,,,0.00,118.000000,,2013-04-05 00:33:00,
2013-04-04 19:43:00,55.0,17.0,-100.00,NE,47,1.0,9.0,22,0.00,,,0.00,118.000000,,2013-04-05 00:43:00,
2013-04-04 19:52:00,55.0,17.0,-100.00,NE,47,1.0,9.0,22,0.00,,,0.00,118.000000,,2013-04-05 00:52:00,
2013-04-04 20:02:00,55.0,17.0,-100.00,NE,47,1.0,9.0,22,0.00,,,0.00,118.000000,,2013-04-05 01:02:00,
2013-04-04 20:32:00,50.0,16.0,-100.00,ESE,119,0.0,2.0,25,0.00,,,0.00,4.000000,,2013-04-05 01:32:00,
2013-04-04 20:42:00,50.0,16.0,-100.00,ESE,119,0.0,2.0,25,0.00,,,0.00,4.000000,,2013-04-05 01:42:00,
2013-04-04 20:53:00,50.0,16.0,-100.00,ESE,119,0.0,2.0,25,0.00,,,0.00,4.000000,,2013-04-05 01:53:00,
2013-04-04 21:03:00,50.0,16.0,-100.00,ESE,119,0.0,2.0,25,0.00,,,0.00,4.000000,,2013-04-05 02:03:00,
2013-04-04 21:32:00,47.0,16.0,-100.00,SSE,154,0.0,0.0,29,0.00,,,0.00,0.000000,,2013-04-05 02:32:00,
2013-04-04 21:42:00,47.0,16.0,-100.00,SSE,154,0.0,0.0,29,0.00,,,0.00,0.000000,,2013-04-05 02:42:00,
2013-04-04 21:52:00,47.0,16.0,-100.00,SSE,154,0.0,0.0,29,0.00,,,0.00,0.000000,,2013-04-05 02:52:00,
2013-04-04 22:02:00,47.0,16.0,-100.00,SSE,154,0.0,0.0,29,0.00,,,0.00,0.000000,,2013-04-05 03:02:00,
2013-04-04 22:33:00,42.0,20.0,-100.00,NNE,30,0.0,0.0,41,0.00,,,0.00,0.000000,,2013-04-05 03:33:00,
2013-04-04 22:43:00,42.0,20.0,-100.00,NNE,30,0.0,0.0,41,0.00,,,0.00,0.000000,,2013-04-05 03:43:00,
2013-04-04 22:54:00,42.0,20.0,-100.00,NNE,30,0.0,0.0,41,0.00,,,0.00,0.000000,,2013-04-05 03:54:00,
2013-04-04 23:02:00,42.0,20.0,-100.00,NNE,30,0.0,0.0,41,0.00,,,0.00,0.000000,,2013-04-05 04:02:00,
2013-04-04 23:33:00,40.0,23.0,-100.00,NNW,339,0.0,0.0,51,0.00,,,0.00,0.000000,,2013-04-05 04:33:00,
2013-04-04 23:42:00,40.0,23.0,-100.00,NNW,339,0.0,0.0,51,0.00,,,0.00,0.000000,,2013-04-05 04:42:00,
2013-04-04 23:52:00,40.0,23.0,-100.00,NNW,339,0.0,0.0,51,0.00,,,0.00,0.000000,,2013-04-05 04:52:00,